createdAt,value
2023-05-28T00:00:23.007Z,61
2023-05-28T00:04:26.361Z,61
2023-05-28T00:06:28.687Z,61
2023-05-28T00:08:28.061Z,61
2023-05-28T00:10:29.053Z,61
2023-05-28T00:16:34.689Z,61
2023-05-28T00:18:44.066Z,61
2023-05-28T00:22:47.846Z,61
2023-05-28T00:26:41.520Z,61
2023-05-28T00:32:48.163Z,61
2023-05-28T00:36:49.579Z,61
2023-05-28T00:38:50.620Z,61
2023-05-28T00:42:53.919Z,61
2023-05-28T00:46:57.439Z,61
2023-05-28T00:48:59.114Z,61
2023-05-28T00:53:01.724Z,61
2023-05-28T00:59:06.528Z,61
2023-05-28T01:01:08.483Z,61
2023-05-28T01:05:12.020Z,61
2023-05-28T01:09:15.169Z,61
2023-05-28T01:15:18.841Z,61
2023-05-28T01:19:21.232Z,61
2023-05-28T01:21:22.682Z,61
2023-05-28T01:25:25.759Z,61
2023-05-28T01:29:28.144Z,61
2023-05-28T01:31:30.112Z,61
2023-05-28T01:35:32.939Z,61
2023-05-28T01:41:37.758Z,61
2023-05-28T01:47:43.363Z,61
2023-05-28T01:51:46.386Z,61
2023-05-28T01:57:50.796Z,61
2023-05-28T02:01:53.867Z,61
2023-05-28T02:03:55.816Z,61
2023-05-28T02:07:58.021Z,61
2023-05-28T02:12:00.881Z,61
2023-05-28T02:14:02.634Z,61
2023-05-28T02:18:05.768Z,61
2023-05-28T02:24:10.113Z,61
2023-05-28T02:28:13.374Z,60
2023-05-28T02:30:15.059Z,60
2023-05-28T02:34:17.497Z,60
2023-05-28T02:40:21.979Z,60
2023-05-28T02:44:24.829Z,60
2023-05-28T02:46:26.761Z,60
2023-05-28T02:50:29.708Z,60
2023-05-28T02:54:33.300Z,360
2023-05-28T02:56:34.723Z,360
2023-05-28T03:00:37.769Z,360
2023-05-28T03:06:42.291Z,360
2023-05-28T03:10:45.391Z,360
2023-05-28T03:12:47.288Z,360
2023-05-28T03:16:49.949Z,360
2023-05-28T03:22:54.496Z,360
2023-05-28T03:26:57.554Z,360
2023-05-28T03:28:58.879Z,360
2023-05-28T03:31:43.827Z,360
2023-05-28T03:33:45.438Z,360
2023-05-28T03:37:48.200Z,360
2023-05-28T03:43:53.112Z,360
2023-05-28T03:47:56.289Z,360
2023-05-28T03:49:57.769Z,360
2023-05-28T03:54:01.381Z,360
2023-05-28T04:00:05.947Z,360
2023-05-28T04:04:09.086Z,360
2023-05-28T04:06:10.480Z,360
2023-05-28T04:10:14.067Z,360
2023-05-28T04:14:16.716Z,360
2023-05-28T04:16:18.724Z,360
2023-05-28T04:20:22.555Z,360
2023-05-28T04:26:27.016Z,360
2023-05-28T04:30:30.629Z,360
2023-05-28T04:32:32.094Z,360
2023-05-28T04:36:35.650Z,360
2023-05-28T04:42:39.854Z,360
2023-05-28T04:46:42.917Z,360
2023-05-28T04:48:44.240Z,360
2023-05-28T04:52:47.675Z,360
2023-05-28T04:56:51.065Z,360
2023-05-28T04:58:52.872Z,360
2023-05-28T05:03:03.668Z,360
2023-05-28T05:09:00.661Z,360
2023-05-28T05:13:03.247Z,360
2023-05-28T05:15:04.692Z,360
2023-05-28T05:19:08.179Z,360
2023-05-28T05:25:12.159Z,360
2023-05-28T05:31:15.894Z,360
2023-05-28T05:35:18.670Z,360
2023-05-28T05:41:22.967Z,360
2023-05-28T05:45:25.535Z,360
2023-05-28T05:47:27.009Z,360
2023-05-28T05:51:29.745Z,360
2023-05-28T05:55:32.363Z,360
2023-05-28T05:57:33.912Z,360
2023-05-28T06:01:36.372Z,28
2023-05-28T06:03:37.813Z,28
2023-05-28T06:11:43.693Z,28
2023-05-28T06:13:44.937Z,28
2023-05-28T06:17:47.894Z,30
2023-05-28T06:23:51.227Z,30
2023-05-28T06:27:54.716Z,30
2023-05-28T06:29:55.639Z,30
2023-05-28T06:33:58.160Z,29
2023-05-28T06:38:00.709Z,29
2023-05-28T06:40:01.586Z,275
2023-05-28T06:42:03.674Z,222
2023-05-28T06:50:08.129Z,177
2023-05-28T06:54:11.391Z,178
2023-05-28T06:56:12.870Z,178
2023-05-28T07:00:15.667Z,195
2023-05-28T07:06:20.476Z,190
2023-05-28T07:10:23.128Z,183
2023-05-28T07:12:24.707Z,183
2023-05-28T07:16:27.348Z,183
2023-05-28T07:20:29.819Z,183
2023-05-28T07:22:31.380Z,183
2023-05-28T07:26:34.552Z,183
2023-05-28T07:30:37.601Z,190
2023-05-28T07:32:38.983Z,190
2023-05-28T07:36:42.174Z,226
2023-05-28T07:38:43.255Z,226
2023-05-28T07:48:51.267Z,236
2023-05-28T07:54:54.491Z,170
2023-05-28T07:58:57.121Z,159
2023-05-28T08:05:01.181Z,276
2023-05-28T08:09:04.141Z,181
2023-05-28T08:11:05.086Z,181
2023-05-28T08:15:06.995Z,174
2023-05-28T08:19:09.756Z,207
2023-05-28T08:21:11.338Z,207
2023-05-28T08:25:13.214Z,52
2023-05-28T08:31:16.615Z,179
2023-05-28T08:35:19.405Z,79
2023-05-28T08:37:21.098Z,86
2023-05-28T08:41:25.029Z,108
2023-05-28T08:47:27.570Z,4
2023-05-28T08:51:32.172Z,99
2023-05-28T08:53:33.079Z,322
2023-05-28T08:57:35.496Z,327
2023-05-28T09:01:38.842Z,107
2023-05-28T09:03:40.181Z,360
2023-05-28T09:07:43.524Z,110
2023-05-28T09:13:47.610Z,120
2023-05-28T09:17:50.299Z,123
2023-05-28T09:19:51.195Z,120
2023-05-28T09:23:53.399Z,28
2023-05-28T09:29:57.723Z,119
2023-05-28T09:34:00.723Z,138
2023-05-28T09:36:01.645Z,125
2023-05-28T09:40:04.562Z,104
2023-05-28T09:44:07.914Z,99
2023-05-28T09:46:08.944Z,23
2023-05-28T09:50:11.288Z,107
2023-05-28T09:52:13.282Z,96
2023-05-28T09:56:15.859Z,108
2023-05-28T10:00:18.553Z,119
2023-05-28T10:02:19.360Z,360
2023-05-28T10:06:21.730Z,162
2023-05-28T10:12:25.378Z,85
2023-05-28T10:17:11.742Z,26
2023-05-28T10:23:14.808Z,2
2023-05-28T10:27:17.296Z,129
2023-05-28T10:29:18.133Z,172
2023-05-28T10:33:20.258Z,91
2023-05-28T10:37:22.771Z,53
2023-05-28T10:39:23.694Z,1
2023-05-28T10:43:26.914Z,115
2023-05-28T10:49:30.996Z,119
2023-05-28T10:53:32.862Z,133
2023-05-28T10:55:34.522Z,67
2023-05-28T10:57:35.442Z,105
2023-05-28T10:59:36.491Z,94
2023-05-28T11:05:40.434Z,113
2023-05-28T11:07:41.249Z,21
2023-05-28T11:11:43.596Z,24
2023-05-28T11:15:46.199Z,110
2023-05-28T11:21:49.798Z,101
2023-05-28T11:25:51.951Z,56
2023-05-28T11:27:53.210Z,10
2023-05-28T11:31:55.357Z,15
2023-05-28T11:35:59.015Z,150
2023-05-28T11:38:00.466Z,333
2023-05-28T11:42:02.907Z,108
2023-05-28T11:48:06.490Z,64
2023-05-28T11:52:08.523Z,359
2023-05-28T11:54:10.258Z,4
2023-05-28T11:58:12.926Z,98
2023-05-28T12:04:17.377Z,89
2023-05-28T12:08:20.410Z,119
2023-05-28T12:10:21.960Z,90
2023-05-28T12:14:24.863Z,94
2023-05-28T12:18:27.249Z,337
2023-05-28T12:20:28.291Z,57
2023-05-28T12:24:30.714Z,360
2023-05-28T12:28:33.104Z,276
2023-05-28T12:30:34.032Z,121
2023-05-28T12:34:36.840Z,111
2023-05-28T12:36:38.119Z,26
2023-05-28T12:38:39.067Z,342
2023-05-28T12:40:40.192Z,19
2023-05-28T12:46:43.116Z,138
2023-05-28T12:52:46.550Z,174
2023-05-28T12:56:49.731Z,74
2023-05-28T13:02:53.258Z,329
2023-05-28T13:06:56.135Z,2
2023-05-28T13:08:57.481Z,82
2023-05-28T13:12:59.175Z,59
2023-05-28T13:17:01.977Z,146
2023-05-28T13:19:03.557Z,113
2023-05-28T13:23:06.956Z,14
2023-05-28T13:29:10.890Z,188
2023-05-28T13:33:13.614Z,98
2023-05-28T13:35:15.299Z,131
2023-05-28T13:39:17.747Z,160
2023-05-28T13:45:21.374Z,186
2023-05-28T13:49:24.057Z,103
2023-05-28T13:51:25.562Z,358
2023-05-28T13:55:27.981Z,47
2023-05-28T13:59:31.570Z,138
2023-05-28T14:01:33.152Z,138
2023-05-28T14:05:34.707Z,97
2023-05-28T14:09:37.084Z,309
2023-05-28T14:12:04.214Z,80
2023-05-28T14:15:40.648Z,325
2023-05-28T14:17:41.770Z,6
2023-05-28T14:19:43.561Z,131
2023-05-28T14:21:44.483Z,70
2023-05-28T14:27:56.732Z,132
2023-05-28T14:33:51.706Z,310
2023-05-28T14:37:53.924Z,8
2023-05-28T14:43:58.658Z,335
2023-05-28T14:50:03.110Z,22
2023-05-28T14:54:06.283Z,25
2023-05-28T15:00:09.985Z,335
2023-05-28T15:04:11.810Z,23
2023-05-28T15:06:13.052Z,356
2023-05-28T15:10:15.664Z,315
2023-05-28T15:16:18.709Z,98
2023-05-28T15:20:22.205Z,327
2023-05-28T15:22:23.594Z,358
2023-05-28T15:26:24.195Z,21
2023-05-28T15:30:26.971Z,104
2023-05-28T15:32:28.718Z,360
2023-05-28T15:36:31.349Z,104
2023-05-28T15:42:35.969Z,353
2023-05-28T15:46:38.195Z,337
2023-05-28T15:48:39.653Z,10
2023-05-28T15:50:40.438Z,360
2023-05-28T15:52:42.031Z,46
2023-05-28T15:58:44.783Z,321
2023-05-28T16:00:45.805Z,42
2023-05-28T16:04:48.115Z,78
2023-05-28T16:08:50.143Z,360
2023-05-28T16:14:54.151Z,47
2023-05-28T16:18:56.205Z,9
2023-05-28T16:20:57.518Z,86
2023-05-28T16:24:59.615Z,105
2023-05-28T16:29:02.351Z,340
2023-05-28T16:31:04.398Z,78
2023-05-28T16:35:07.402Z,89
2023-05-28T16:41:11.545Z,28
2023-05-28T16:45:14.639Z,26
2023-05-28T16:47:16.310Z,91
2023-05-28T16:51:18.285Z,92
2023-05-28T16:57:21.341Z,85
2023-05-28T17:01:23.744Z,50
2023-05-28T17:02:07.500Z,69
2023-05-28T17:08:10.776Z,69
2023-05-28T17:12:14.056Z,68
2023-05-28T17:14:15.648Z,68
2023-05-28T17:18:26.574Z,68
2023-05-28T17:22:19.953Z,43
2023-05-28T17:24:21.277Z,43
2023-05-28T17:28:23.880Z,70
2023-05-28T17:34:28.028Z,70
2023-05-28T17:38:30.595Z,360
2023-05-28T17:40:32.139Z,360
2023-05-28T17:44:34.645Z,360
2023-05-28T17:50:38.863Z,360
2023-05-28T17:54:41.835Z,360
2023-05-28T17:56:42.891Z,360
2023-05-28T18:00:45.111Z,360
2023-05-28T18:04:47.611Z,360
2023-05-28T18:06:49.373Z,360
2023-05-28T18:10:51.596Z,360
2023-05-28T18:16:56.189Z,360
2023-05-28T18:20:58.876Z,360
2023-05-28T18:23:00.261Z,360
2023-05-28T18:27:02.686Z,360
2023-05-28T18:33:07.854Z,360
2023-05-28T18:37:11.113Z,360
2023-05-28T18:39:12.638Z,360
2023-05-28T18:43:15.339Z,360
2023-05-28T18:47:17.543Z,360
2023-05-28T18:49:27.459Z,360
2023-05-28T18:53:21.203Z,360
2023-05-28T18:57:24.148Z,360
2023-05-28T18:59:25.390Z,360
2023-05-28T19:03:28.306Z,360
2023-05-28T19:05:29.838Z,360
2023-05-28T19:07:31.531Z,360
2023-05-28T19:09:33.135Z,360
2023-05-28T19:15:37.480Z,360
2023-05-28T19:17:38.993Z,360
2023-05-28T19:21:41.134Z,360
2023-05-28T19:25:44.343Z,360
2023-05-28T19:31:49.263Z,360
2023-05-28T19:35:51.930Z,360
2023-05-28T19:37:53.117Z,360
2023-05-28T19:41:56.423Z,360
2023-05-28T19:45:59.905Z,360
2023-05-28T19:48:01.607Z,360
2023-05-28T19:52:04.808Z,360
2023-05-28T19:58:07.900Z,360
2023-05-28T20:04:12.849Z,360
2023-05-28T20:08:15.220Z,360
2023-05-28T20:14:19.847Z,360
2023-05-28T20:18:23.150Z,360
2023-05-28T20:20:24.749Z,360
2023-05-28T20:24:27.419Z,360
2023-05-28T20:28:30.444Z,360
2023-05-28T20:30:32.052Z,360
2023-05-28T20:34:35.344Z,360
2023-05-28T20:40:38.978Z,360
2023-05-28T20:44:41.499Z,360
2023-05-28T20:46:43.362Z,360
2023-05-28T20:50:45.838Z,360
2023-05-28T20:56:49.140Z,300
2023-05-28T21:00:51.215Z,300
2023-05-28T21:02:53.008Z,40
2023-05-28T21:06:55.392Z,40
2023-05-28T21:10:58.025Z,40
2023-05-28T21:12:59.635Z,40
2023-05-28T21:17:03.980Z,40
2023-05-28T21:21:04.764Z,40
2023-05-28T21:23:06.364Z,40
2023-05-28T21:27:08.571Z,40
2023-05-28T21:29:09.869Z,40
2023-05-28T21:31:11.096Z,40
2023-05-28T21:33:12.064Z,40
2023-05-28T21:39:15.589Z,40
2023-05-28T21:45:19.125Z,40
2023-05-28T21:49:22.341Z,40
2023-05-28T21:55:26.600Z,40
2023-05-28T21:59:30.012Z,39
2023-05-28T22:03:33.257Z,39
2023-05-28T22:05:34.748Z,39
2023-05-28T22:09:37.729Z,40
2023-05-28T22:11:39.213Z,40
2023-05-28T22:15:41.370Z,39
2023-05-28T22:21:44.956Z,40
2023-05-28T22:27:48.983Z,40
2023-05-28T22:31:51.919Z,40
2023-05-28T22:37:55.969Z,39
2023-05-28T22:41:58.545Z,39
2023-05-28T22:44:00.334Z,39
2023-05-28T22:48:03.717Z,37
2023-05-28T22:52:06.941Z,35
2023-05-28T22:54:08.182Z,35
2023-05-28T22:58:10.602Z,35
2023-05-28T23:04:15.690Z,35
2023-05-28T23:08:19.152Z,35
2023-05-28T23:10:21.031Z,35
2023-05-28T23:14:23.300Z,35
2023-05-28T23:20:27.506Z,35
2023-05-28T23:24:29.719Z,35
2023-05-28T23:26:31.290Z,35
2023-05-28T23:30:33.859Z,35
2023-05-28T23:34:37.172Z,35
2023-05-28T23:36:38.902Z,35
2023-05-28T23:40:41.050Z,35
2023-05-28T23:46:45.460Z,35
2023-05-28T23:47:29.267Z,35
2023-05-28T23:51:32.408Z,35
2023-05-28T23:57:36.881Z,35
